Terminal Aerodrome Forecast
Issued by NWS

Home | Current Version | Previous Version | Text Only | Print | Product List | Glossary On
Versions: 1 2 3 4 5 6 7 8 9 10 11 12 13 14 15 16 17 18 19 20 21
473
FTUS46 KSEW 271131
TAFBLI
TAF
KBLI 271131Z 2712/2812 13007KT P6SM VCSH OVC020
      TEMPO 2714/2718 -SHRA
     FM271800 17012KT P6SM -SHRA BKN028 OVC050
     FM280000 17007KT P6SM VCSH SCT028 BKN035 BKN050 PROB30
      2800/2806 -SHRA
     FM280600 15007KT P6SM -RA SCT028 BKN035 OVC050=

USA.gov is the U.S. government's official web portal to all federal, state and local government web resources and services.